createdAt,value
2022-10-12T00:03:21.958Z,100
2022-10-12T00:08:20.127Z,100
2022-10-12T00:13:18.049Z,100
2022-10-12T00:18:16.209Z,100
2022-10-12T00:23:14.479Z,100
2022-10-12T00:28:12.473Z,100
2022-10-12T00:33:10.544Z,100
2022-10-12T00:38:08.776Z,100
2022-10-12T00:43:06.910Z,100
2022-10-12T00:48:04.924Z,100
2022-10-12T00:53:03.110Z,100
2022-10-12T00:58:01.362Z,100
2022-10-12T01:02:59.106Z,100
2022-10-12T01:07:57.376Z,100
2022-10-12T01:12:55.605Z,100
2022-10-12T01:17:53.854Z,100
2022-10-12T01:22:51.875Z,100
2022-10-12T01:27:49.955Z,100
2022-10-12T01:32:47.943Z,100
2022-10-12T01:37:46.342Z,100
2022-10-12T01:42:44.315Z,100
2022-10-12T01:47:42.608Z,100
2022-10-12T01:52:41.180Z,100
2022-10-12T01:57:39.816Z,100
2022-10-12T02:02:37.331Z,100
2022-10-12T02:07:35.922Z,100
2022-10-12T02:12:33.910Z,100
2022-10-12T02:17:32.189Z,100
2022-10-12T02:22:30.406Z,100
2022-10-12T02:27:28.621Z,100
2022-10-12T02:32:26.776Z,100
2022-10-12T02:37:25.027Z,100
2022-10-12T02:42:22.914Z,100
2022-10-12T02:47:20.976Z,100
2022-10-12T02:52:19.102Z,100
2022-10-12T02:57:17.361Z,100
2022-10-12T03:02:15.479Z,100
2022-10-12T03:07:13.717Z,100
2022-10-12T03:12:11.879Z,100
2022-10-12T03:17:09.882Z,100
2022-10-12T03:22:07.973Z,100
2022-10-12T03:27:06.409Z,100
2022-10-12T03:32:04.452Z,100
2022-10-12T03:37:02.507Z,100
2022-10-12T03:42:00.723Z,100
2022-10-12T03:46:58.937Z,100
2022-10-12T03:51:57.016Z,100
2022-10-12T03:56:55.249Z,100
2022-10-12T04:01:53.329Z,100
2022-10-12T04:06:51.223Z,100
2022-10-12T04:11:49.382Z,100
2022-10-12T04:16:47.573Z,100
2022-10-12T04:21:45.585Z,100
2022-10-12T04:26:43.522Z,100
2022-10-12T04:31:41.385Z,100
2022-10-12T04:36:39.360Z,100
2022-10-12T04:41:37.491Z,100
2022-10-12T04:46:35.654Z,100
2022-10-12T04:51:33.776Z,100
2022-10-12T04:56:31.975Z,100
2022-10-12T05:01:30.368Z,100
2022-10-12T05:06:28.647Z,100
2022-10-12T05:11:26.845Z,100
2022-10-12T05:16:25.185Z,100
2022-10-12T05:21:23.591Z,100
2022-10-12T05:26:22.044Z,100
2022-10-12T05:31:20.477Z,100
2022-10-12T05:36:19.096Z,100
2022-10-12T05:41:17.671Z,100
2022-10-12T05:46:16.323Z,100
2022-10-12T05:51:14.786Z,100
2022-10-12T05:56:13.623Z,100
2022-10-12T06:01:12.541Z,100
2022-10-12T06:06:11.133Z,100
2022-10-12T06:11:09.175Z,100
2022-10-12T06:16:07.262Z,100
2022-10-12T06:26:03.906Z,100
2022-10-12T06:31:02.166Z,100
2022-10-12T06:36:03.366Z,100
2022-10-12T06:41:01.828Z,100
2022-10-12T06:46:01.461Z,98.4
2022-10-12T06:51:00.930Z,94.6
2022-10-12T06:55:59.709Z,89.2
2022-10-12T07:00:58.170Z,88
2022-10-12T07:05:58.410Z,79.2
2022-10-12T07:11:00.026Z,69.9
2022-10-12T07:15:58.369Z,66.4
2022-10-12T07:20:57.832Z,60.1
2022-10-12T07:25:58.703Z,54.8
2022-10-12T07:30:56.344Z,54.4
2022-10-12T07:36:12.615Z,58.3
2022-10-12T07:40:49.460Z,59.2
2022-10-12T07:45:47.181Z,59.6
2022-10-12T07:50:46.857Z,54.5
2022-10-12T07:55:46.306Z,51.2
2022-10-12T08:00:48.185Z,45.8
2022-10-12T08:05:44.105Z,50.6
2022-10-12T08:10:41.037Z,48.9
2022-10-12T08:15:40.772Z,48.4
2022-10-12T08:20:37.034Z,52.6
2022-10-12T08:25:33.594Z,55.9
2022-10-12T08:30:30.242Z,60.2
2022-10-12T08:35:26.897Z,63.6
2022-10-12T08:40:24.618Z,63.4
2022-10-12T08:45:22.541Z,64
2022-10-12T08:50:20.518Z,64.2
2022-10-12T08:55:18.957Z,63.7
2022-10-12T09:00:17.526Z,61.2
2022-10-12T09:05:15.622Z,61.9
2022-10-12T09:10:13.657Z,62.2
2022-10-12T09:15:11.594Z,62.4
2022-10-12T09:20:09.508Z,63.9
2022-10-12T09:25:07.800Z,63.1
2022-10-12T09:30:06.777Z,61
2022-10-12T09:35:05.001Z,61.3
2022-10-12T09:40:03.066Z,62.5
2022-10-12T09:45:01.383Z,60.2
2022-10-12T09:49:58.920Z,62.1
2022-10-12T09:54:56.422Z,63.3
2022-10-12T09:59:54.548Z,65.6
2022-10-12T10:04:52.860Z,65.3
2022-10-12T10:09:52.047Z,60.6
2022-10-12T10:14:51.007Z,58.1
2022-10-12T10:19:49.817Z,54.9
2022-10-12T10:24:48.500Z,53.8
2022-10-12T10:29:46.558Z,53.6
2022-10-12T10:34:45.318Z,52.4
2022-10-12T10:39:45.177Z,47.3
2022-10-12T10:44:45.356Z,46.4
2022-10-12T10:49:43.228Z,49.4
2022-10-12T10:54:39.227Z,51.5
2022-10-12T10:59:36.503Z,53.6
2022-10-12T11:04:34.311Z,53.4
2022-10-12T11:09:33.011Z,52.9
2022-10-12T11:14:30.947Z,53.1
2022-10-12T11:19:29.385Z,52.9
2022-10-12T11:24:28.327Z,48.6
2022-10-12T11:29:26.516Z,51.5
2022-10-12T11:34:24.377Z,51.8
2022-10-12T11:39:22.789Z,51.7
2022-10-12T11:44:19.831Z,53.3
2022-10-12T11:49:18.057Z,53.3
2022-10-12T11:54:16.509Z,54.1
2022-10-12T11:59:13.476Z,56.4
2022-10-12T12:04:29.494Z,57.4
2022-10-12T12:09:09.299Z,59.4
2022-10-12T12:14:07.309Z,59
2022-10-12T12:19:05.435Z,59.2
2022-10-12T12:24:03.528Z,58.5
2022-10-12T12:29:01.597Z,60.2
2022-10-12T12:33:59.404Z,60.6
2022-10-12T12:38:57.348Z,60.4
2022-10-12T12:43:55.265Z,60.9
2022-10-12T12:48:53.427Z,61.8
2022-10-12T12:53:51.229Z,62.4
2022-10-12T12:58:48.938Z,66.7
2022-10-12T13:03:47.131Z,67.4
2022-10-12T13:08:44.965Z,68
2022-10-12T13:13:42.971Z,69.6
2022-10-12T13:18:49.107Z,68.1
2022-10-12T13:23:39.036Z,65.9
2022-10-12T13:28:36.934Z,68.9
2022-10-12T13:33:34.918Z,68.4
2022-10-12T13:38:33.031Z,70.8
2022-10-12T13:43:30.845Z,72.1
2022-10-12T13:48:46.807Z,71.1
2022-10-12T13:53:26.773Z,71.2
2022-10-12T13:58:24.255Z,72.4
2022-10-12T14:03:22.118Z,70.8
2022-10-12T14:08:20.053Z,71.6
2022-10-12T14:13:16.980Z,72.4
2022-10-12T14:18:14.912Z,75
2022-10-12T14:23:12.577Z,75
2022-10-12T14:28:10.701Z,73.7
2022-10-12T14:33:09.016Z,73.8
2022-10-12T14:38:07.006Z,77.4
2022-10-12T14:43:04.986Z,78.8
2022-10-12T14:48:02.231Z,80.2
2022-10-12T14:53:00.085Z,82.4
2022-10-12T14:57:57.865Z,85.3
2022-10-12T15:02:55.466Z,88.9
2022-10-12T15:07:53.428Z,90.2
2022-10-12T15:12:51.212Z,92.7
2022-10-12T15:17:49.011Z,94.4
2022-10-12T15:22:46.905Z,97.3
2022-10-12T15:27:44.919Z,99
2022-10-12T15:32:42.840Z,100
2022-10-12T15:37:40.689Z,100
2022-10-12T15:42:38.226Z,100
2022-10-12T15:47:35.619Z,100
2022-10-12T15:52:33.530Z,100
2022-10-12T15:57:31.499Z,100
2022-10-12T16:02:29.583Z,100
2022-10-12T16:07:27.463Z,100
2022-10-12T16:12:25.774Z,100
2022-10-12T16:17:23.830Z,100
2022-10-12T16:22:22.065Z,100
2022-10-12T16:27:20.113Z,100
2022-10-12T16:32:18.151Z,100
2022-10-12T16:37:16.150Z,100
2022-10-12T16:42:14.694Z,100
2022-10-12T16:47:12.490Z,100
2022-10-12T16:52:10.554Z,100
2022-10-12T16:57:08.563Z,100
2022-10-12T17:02:06.674Z,100
2022-10-12T17:07:04.681Z,100
2022-10-12T17:12:02.765Z,100
2022-10-12T17:17:03.739Z,100
2022-10-12T17:22:01.416Z,100
2022-10-12T17:26:59.847Z,100
2022-10-12T17:31:57.965Z,100
2022-10-12T17:36:56.113Z,100
2022-10-12T17:41:54.321Z,100
2022-10-12T17:46:52.622Z,100
2022-10-12T17:51:50.820Z,100
2022-10-12T17:56:49.033Z,100
2022-10-12T18:01:47.174Z,100
2022-10-12T18:06:45.596Z,100
2022-10-12T18:11:43.781Z,100
2022-10-12T18:16:42.106Z,100
2022-10-12T18:21:40.412Z,100
2022-10-12T18:26:38.388Z,100
2022-10-12T18:31:36.419Z,100
2022-10-12T18:36:34.713Z,100
2022-10-12T18:41:32.877Z,100
2022-10-12T18:46:31.079Z,100
2022-10-12T18:51:29.378Z,100
2022-10-12T18:56:27.670Z,100
2022-10-12T19:01:25.687Z,100
2022-10-12T19:06:23.861Z,100
2022-10-12T19:11:21.976Z,100
2022-10-12T19:16:20.373Z,100
2022-10-12T19:21:17.483Z,100
2022-10-12T19:26:15.330Z,100
2022-10-12T19:31:13.228Z,100
2022-10-12T19:36:11.393Z,100
2022-10-12T19:41:09.315Z,100
2022-10-12T19:46:07.688Z,100
2022-10-12T19:51:05.970Z,100
2022-10-12T19:56:04.263Z,100
2022-10-12T20:01:03.697Z,100
2022-10-12T20:06:01.345Z,100
2022-10-12T20:10:59.578Z,100
2022-10-12T20:15:58.245Z,100
2022-10-12T20:20:56.316Z,100
2022-10-12T20:25:54.447Z,100
2022-10-12T20:30:52.802Z,100
2022-10-12T20:35:51.097Z,100
2022-10-12T20:40:49.366Z,100
2022-10-12T20:45:47.354Z,100
2022-10-12T20:50:45.397Z,100
2022-10-12T20:55:43.449Z,100
2022-10-12T21:00:41.531Z,100
2022-10-12T21:05:39.551Z,100
2022-10-12T21:10:40.083Z,100
2022-10-12T21:15:35.866Z,100
2022-10-12T21:20:33.940Z,100
2022-10-12T21:25:32.117Z,100
2022-10-12T21:30:30.265Z,100
2022-10-12T21:35:28.587Z,100
2022-10-12T21:40:26.760Z,100
2022-10-12T21:45:24.801Z,100
2022-10-12T21:50:22.913Z,100
2022-10-12T21:55:21.149Z,100
2022-10-12T22:00:19.204Z,100
2022-10-12T22:05:17.282Z,100
2022-10-12T22:10:15.514Z,100
2022-10-12T22:15:13.668Z,100
2022-10-12T22:20:11.705Z,100
2022-10-12T22:25:09.903Z,100
2022-10-12T22:30:08.174Z,100
2022-10-12T22:35:06.658Z,100
2022-10-12T22:40:04.921Z,100
2022-10-12T22:45:03.017Z,100
2022-10-12T22:50:01.238Z,100
2022-10-12T22:54:59.592Z,100
2022-10-12T22:59:57.788Z,100
2022-10-12T23:04:55.934Z,100
2022-10-12T23:09:53.946Z,100
2022-10-12T23:14:52.171Z,100
2022-10-12T23:19:50.271Z,100
2022-10-12T23:24:48.389Z,100
2022-10-12T23:29:46.192Z,100
2022-10-12T23:34:44.304Z,100
2022-10-12T23:39:42.551Z,100
2022-10-12T23:44:40.671Z,100
2022-10-12T23:49:38.972Z,100
2022-10-12T23:54:36.951Z,100
2022-10-12T23:59:35.118Z,100
